Time;durP1;ratioP1;P1;durP2;ratioP2;P2;SDS_P1;SDS_P2;PMS_P1;PMS_P2;Temp;Humidity;BMP_temperature;BMP_pressure;BME280_temperature;BME280_humidity;BME280_pressure;Samples;Min_cycle;Max_cycle;Signal;HPM_P1;HPM_P2
2022/02/26 00:01:00;;;;;;;11.53;6.25;;;;;;;5.33;64.84;99673.36;1747222;80;21543;-38
2022/02/26 00:03:26;;;;;;;10.65;6.78;;;;;;;5.29;64.98;99673.76;1703811;81;21072;-38
2022/02/26 00:05:53;;;;;;;11.30;6.60;;;;;;;5.23;65.14;99675.02;1706462;83;21090;-38
2022/02/26 00:08:19;;;;;;;9.43;6.67;;;;;;;5.22;65.23;99673.46;1747549;81;21943;-38
2022/02/26 00:10:46;;;;;;;9.35;6.00;;;;;;;5.20;65.34;99678.34;1746219;81;21001;-39
2022/02/26 00:13:13;;;;;;;10.93;6.17;;;;;;;5.18;65.32;99679.23;1746568;80;21058;-38
2022/02/26 00:15:40;;;;;;;10.05;6.10;;;;;;;5.12;65.41;99681.83;1758387;80;21076;-39
2022/02/26 00:18:07;;;;;;;8.08;5.60;;;;;;;5.08;65.46;99680.88;1738321;81;21049;-38
2022/02/26 00:20:34;;;;;;;12.45;6.42;;;;;;;5.06;65.51;99685.22;1744809;81;21856;-38
2022/02/26 00:23:01;;;;;;;9.13;5.78;;;;;;;5.06;65.41;99686.56;1747592;81;21651;-39
2022/02/26 00:25:28;;;;;;;8.88;5.80;;;;;;;5.11;65.29;99689.64;1748192;81;20989;-39
2022/02/26 00:27:55;;;;;;;10.20;6.03;;;;;;;5.14;65.27;99689.00;1741520;81;21006;-39
2022/02/26 00:30:22;;;;;;;10.55;6.08;;;;;;;5.13;65.18;99694.16;1742319;81;21567;-38
2022/02/26 00:32:48;;;;;;;8.63;5.80;;;;;;;5.09;65.18;99699.36;1737615;80;21156;-38
2022/02/26 00:35:15;;;;;;;8.45;5.67;;;;;;;5.07;65.20;99703.48;1754273;80;20970;-39
2022/02/26 00:37:41;;;;;;;8.08;5.78;;;;;;;5.06;65.20;99704.03;1752821;80;21032;-39
2022/02/26 00:40:11;;;;;;;8.68;5.85;;;;;;;5.05;65.10;99702.98;1749272;80;20927;-39
2022/02/26 00:42:38;;;;;;;8.63;5.40;;;;;;;4.99;65.14;99700.20;1747175;80;21080;-39
2022/02/26 00:45:07;;;;;;;9.15;5.58;;;;;;;4.91;65.21;99704.47;1741472;81;21081;-39
2022/02/26 00:47:35;;;;;;;7.42;5.40;;;;;;;4.85;65.38;99709.74;1748640;81;20993;-39
2022/02/26 00:50:03;;;;;;;7.72;4.62;;;;;;;4.82;65.45;99718.44;1727966;81;21483;-38
2022/02/26 00:52:33;;;;;;;7.78;5.45;;;;;;;4.83;65.45;99718.69;1743739;79;21547;-38
2022/02/26 00:55:00;;;;;;;8.55;4.97;;;;;;;4.86;65.56;99721.28;1752726;81;21050;-38
2022/02/26 00:57:27;;;;;;;6.87;5.15;;;;;;;4.86;65.62;99725.31;1758962;81;21109;-38
2022/02/26 00:59:54;;;;;;;7.90;5.22;;;;;;;4.86;65.51;99725.31;1772627;80;20957;-39
2022/02/26 01:02:21;;;;;;;8.53;5.45;;;;;;;4.83;65.54;99729.98;1742510;80;21041;-37
2022/02/26 01:04:48;;;;;;;7.40;5.20;;;;;;;4.80;65.53;99733.52;1755487;81;21069;-37
2022/02/26 01:07:14;;;;;;;7.37;5.17;;;;;;;4.77;65.46;99736.04;1757982;81;21893;-37
2022/02/26 01:09:43;;;;;;;7.53;5.22;;;;;;;4.71;65.43;99736.73;1744859;79;21128;-38
2022/02/26 01:12:10;;;;;;;7.58;5.20;;;;;;;4.64;65.50;99736.41;1744190;80;20985;-38
2022/02/26 01:14:38;;;;;;;7.10;4.83;;;;;;;4.58;65.62;99738.19;1760868;80;21045;-39
2022/02/26 01:17:06;;;;;;;7.62;4.75;;;;;;;4.57;65.59;99732.02;1755025;79;20975;-39
2022/02/26 01:19:34;;;;;;;6.78;4.62;;;;;;;4.60;65.51;99742.13;1763231;80;21041;-38
2022/02/26 01:22:01;;;;;;;5.87;4.30;;;;;;;4.63;65.43;99746.11;1757293;80;21126;-38
2022/02/26 01:24:28;;;;;;;7.33;4.78;;;;;;;4.60;65.43;99749.42;1751126;80;21571;-38
2022/02/26 01:26:55;;;;;;;10.58;5.33;;;;;;;4.58;65.46;99747.58;1750415;79;21618;-38
2022/02/26 01:29:21;;;;;;;5.87;4.50;;;;;;;4.57;65.37;99752.70;1749908;79;20897;-38
2022/02/26 01:31:48;;;;;;;7.40;4.53;;;;;;;4.55;65.17;99761.06;1742997;80;21219;-39
2022/02/26 01:34:15;;;;;;;7.55;5.10;;;;;;;4.52;65.17;99759.00;1739222;80;21053;-37
2022/02/26 01:36:41;;;;;;;7.95;4.85;;;;;;;4.49;65.14;99762.32;1759196;79;21025;-37
2022/02/26 01:39:10;;;;;;;6.20;4.58;;;;;;;4.46;65.06;99761.58;1765506;79;21083;-36
2022/02/26 01:41:37;;;;;;;7.55;4.80;;;;;;;4.41;65.04;99763.05;1759406;80;21089;-37
2022/02/26 01:44:05;;;;;;;6.78;4.47;;;;;;;4.34;65.12;99765.40;1755995;80;21838;-37
2022/02/26 01:46:32;;;;;;;6.40;4.42;;;;;;;4.32;65.17;99772.95;1754725;80;21805;-36
2022/02/26 01:48:58;;;;;;;6.72;4.47;;;;;;;4.36;65.08;99776.60;1756706;79;21022;-37
2022/02/26 01:51:25;;;;;;;6.80;4.30;;;;;;;4.41;65.00;99771.10;1747047;81;20966;-38
2022/02/26 01:53:52;;;;;;;6.22;4.67;;;;;;;4.42;64.93;99775.92;1760019;79;21028;-37
2022/02/26 01:56:18;;;;;;;5.08;3.92;;;;;;;4.39;64.90;99776.00;1774387;79;21036;-39
2022/02/26 01:58:45;;;;;;;8.28;4.45;;;;;;;4.37;64.88;99778.20;1783041;78;21017;-38
2022/02/26 02:01:13;;;;;;;5.67;4.30;;;;;;;4.37;64.80;99783.56;1734583;81;20988;-38
2022/02/26 02:03:40;;;;;;;6.28;4.65;;;;;;;4.33;64.73;99781.25;1755231;80;21038;-38
2022/02/26 02:06:07;;;;;;;7.22;4.95;;;;;;;4.30;64.64;99780.54;1754682;80;21054;-38
2022/02/26 02:08:33;;;;;;;6.05;4.25;;;;;;;4.26;64.73;99790.31;1754582;81;21000;-38
2022/02/26 02:11:00;;;;;;;5.45;3.92;;;;;;;4.22;64.72;99789.31;1761647;81;21191;-38
2022/02/26 02:13:27;;;;;;;8.15;4.40;;;;;;;4.16;64.71;99790.56;1789695;78;20980;-38
2022/02/26 02:15:55;;;;;;;7.35;4.50;;;;;;;4.11;64.78;99791.48;1798459;78;20988;-38
2022/02/26 02:18:21;;;;;;;6.00;4.15;;;;;;;4.07;64.78;99789.69;1792465;79;21048;-39
2022/02/26 02:20:48;;;;;;;8.05;3.98;;;;;;;4.08;64.83;99796.64;1784317;79;21035;-39
2022/02/26 02:23:15;;;;;;;8.15;4.90;;;;;;;4.12;64.86;99803.77;1749705;80;21103;-38
2022/02/26 02:25:41;;;;;;;6.62;4.30;;;;;;;4.10;64.82;99797.94;1760704;81;20969;-38
2022/02/26 02:28:09;;;;;;;5.78;4.30;;;;;;;4.09;64.85;99799.03;1776885;80;21000;-38
2022/02/26 02:30:36;;;;;;;6.95;4.33;;;;;;;4.10;64.85;99796.59;1775931;78;21518;-38
2022/02/26 02:33:02;;;;;;;6.30;4.20;;;;;;;4.09;64.81;99800.91;1785548;78;22320;-38
2022/02/26 02:35:33;;;;;;;7.92;4.58;;;;;;;4.05;64.83;99803.42;1784913;80;21196;-38
2022/02/26 02:38:04;;;;;;;8.38;4.53;;;;;;;4.00;64.89;99802.75;1786416;80;20975;-38
2022/02/26 02:40:30;;;;;;;7.10;4.50;;;;;;;3.92;64.99;99798.34;1794235;79;20979;-38
2022/02/26 02:42:57;;;;;;;5.35;4.20;;;;;;;3.87;65.02;99807.84;1782402;78;21017;-38
2022/02/26 02:45:25;;;;;;;8.15;4.85;;;;;;;3.82;65.14;99806.66;1788549;78;21044;-38
2022/02/26 02:47:51;;;;;;;7.78;4.72;;;;;;;3.76;65.25;99809.75;1791739;78;21083;-38
2022/02/26 02:50:20;;;;;;;6.83;4.17;;;;;;;3.75;65.33;99812.97;1802215;78;21059;-38
2022/02/26 02:52:48;;;;;;;7.12;4.25;;;;;;;3.77;65.38;99810.00;1794562;78;20992;-38
2022/02/26 02:55:14;;;;;;;6.37;4.45;;;;;;;3.79;65.39;99807.24;1793513;80;21083;-38
2022/02/26 02:57:43;;;;;;;7.40;4.50;;;;;;;3.77;65.47;99810.80;1761574;78;21329;-38
2022/02/26 03:00:12;;;;;;;7.28;4.62;;;;;;;3.74;65.51;99818.08;1745282;82;21129;-38
2022/02/26 03:02:39;;;;;;;6.72;4.40;;;;;;;3.73;65.50;99819.72;1755837;80;21562;-38
2022/02/26 03:05:06;;;;;;;6.78;4.65;;;;;;;3.70;65.42;99827.04;1739245;79;21019;-38
2022/02/26 03:07:34;;;;;;;8.05;4.67;;;;;;;3.66;65.40;99824.17;1741394;80;21523;-38
2022/02/26 03:10:03;;;;;;;11.00;5.25;;;;;;;3.62;65.41;99828.56;1747283;80;21049;-38
2022/02/26 03:12:31;;;;;;;7.53;4.72;;;;;;;3.57;65.43;99829.21;1744720;79;21107;-38
2022/02/26 03:14:57;;;;;;;6.65;5.00;;;;;;;3.51;65.51;99827.19;1758008;79;20989;-38
2022/02/26 03:17:25;;;;;;;7.55;4.92;;;;;;;3.44;65.63;99830.81;1747748;80;21128;-38
2022/02/26 03:19:52;;;;;;;7.15;4.25;;;;;;;3.40;65.66;99831.16;1744708;80;21062;-38
2022/02/26 03:22:20;;;;;;;7.55;4.80;;;;;;;3.41;65.73;99833.55;1760403;80;21120;-38
2022/02/26 03:24:47;;;;;;;9.00;5.03;;;;;;;3.46;65.64;99836.67;1769005;80;21865;-38
2022/02/26 03:27:13;;;;;;;11.73;5.65;;;;;;;3.44;65.78;99836.16;1747882;80;20998;-38
2022/02/26 03:29:42;;;;;;;9.03;5.33;;;;;;;3.40;65.74;99841.89;1766083;80;20995;-38
2022/02/26 03:32:09;;;;;;;12.55;6.37;;;;;;;3.30;65.93;99846.11;1771204;79;21049;-38
2022/02/26 03:34:36;;;;;;;10.95;6.00;;;;;;;3.21;66.09;99849.25;1783018;79;21076;-38
2022/02/26 03:37:04;;;;;;;9.65;5.83;;;;;;;3.13;66.27;99848.61;1762994;79;21115;-38
2022/02/26 03:39:31;;;;;;;10.23;6.00;;;;;;;3.08;66.45;99848.71;1759849;80;21010;-38
2022/02/26 03:42:01;;;;;;;10.28;6.08;;;;;;;3.02;66.53;99853.37;1755247;79;20922;-38
2022/02/26 03:44:27;;;;;;;9.93;6.00;;;;;;;3.00;66.66;99861.69;1758082;80;20997;-38
2022/02/26 03:46:54;;;;;;;8.40;5.75;;;;;;;3.04;66.71;99863.25;1745853;80;21864;-38
2022/02/26 03:49:20;;;;;;;9.08;6.05;;;;;;;3.09;66.71;99861.02;1761025;80;21156;-38
2022/02/26 03:51:47;;;;;;;12.20;6.67;;;;;;;3.11;66.76;99869.53;1767071;79;20894;-38
2022/02/26 03:54:14;;;;;;;11.15;6.70;;;;;;;3.13;66.88;99876.74;1759002;80;21844;-38
2022/02/26 03:56:42;;;;;;;10.08;6.50;;;;;;;3.12;66.83;99876.48;1754250;80;21535;-38
2022/02/26 03:59:09;;;;;;;9.98;6.47;;;;;;;3.11;66.83;99874.89;1773867;78;21016;-38
2022/02/26 04:01:36;;;;;;;9.90;6.28;;;;;;;3.07;66.93;99878.72;1786633;79;21901;-38
2022/02/26 04:04:04;;;;;;;11.28;6.15;;;;;;;3.04;67.00;99894.85;1770233;79;21019;-38
2022/02/26 04:06:31;;;;;;;11.05;6.58;;;;;;;2.97;67.01;99901.67;1758644;79;21495;-38
2022/02/26 04:08:57;;;;;;;8.40;5.90;;;;;;;2.91;67.20;99906.86;1773650;78;20996;-38
2022/02/26 04:11:24;;;;;;;10.00;6.37;;;;;;;2.95;67.13;99910.56;1785157;79;21527;-38
2022/02/26 04:13:51;;;;;;;10.25;6.33;;;;;;;2.98;67.09;99920.67;1774132;78;21133;-38
2022/02/26 04:16:18;;;;;;;12.70;7.10;;;;;;;2.97;67.29;99925.77;1769039;79;21535;-38
2022/02/26 04:18:47;;;;;;;11.05;6.78;;;;;;;2.93;67.44;99929.59;1790305;78;21079;-38
2022/02/26 04:21:14;;;;;;;10.70;7.37;;;;;;;2.93;67.69;99934.95;1770919;78;21049;-38
2022/02/26 04:23:41;;;;;;;9.30;6.75;;;;;;;2.92;67.89;99941.39;1777593;78;20990;-38
2022/02/26 04:26:08;;;;;;;10.15;7.12;;;;;;;2.92;68.15;99949.97;1776829;78;21117;-38
2022/02/26 04:28:34;;;;;;;14.05;7.10;;;;;;;2.95;68.31;99947.48;1776806;79;20965;-38
2022/02/26 04:31:01;;;;;;;9.58;6.50;;;;;;;3.00;68.44;99952.76;1773178;79;20968;-38
2022/02/26 04:33:29;;;;;;;12.80;7.87;;;;;;;3.03;68.59;99953.52;1778224;78;21092;-39
2022/02/26 04:35:58;;;;;;;11.43;7.35;;;;;;;3.07;68.83;99965.77;1769205;79;21052;-38
2022/02/26 04:38:29;;;;;;;9.35;7.05;;;;;;;3.11;68.88;99965.97;1769532;78;21830;-36
2022/02/26 04:40:55;;;;;;;16.60;8.40;;;;;;;3.11;68.97;99967.31;1783792;80;21480;-36
2022/02/26 04:43:22;;;;;;;13.38;7.80;;;;;;;3.13;69.06;99970.50;1792333;78;21040;-37
2022/02/26 04:45:48;;;;;;;12.10;7.72;;;;;;;3.14;69.01;99970.76;1794202;79;21033;-37
2022/02/26 04:48:15;;;;;;;13.78;7.60;;;;;;;3.19;68.87;99973.35;1785134;78;21017;-38
2022/02/26 04:50:41;;;;;;;12.20;7.95;;;;;;;3.24;68.60;99982.64;1779445;80;21907;-38
2022/02/26 04:53:08;;;;;;;11.95;7.90;;;;;;;3.29;68.35;99983.89;1775409;79;20964;-38
2022/02/26 04:55:35;;;;;;;14.20;8.05;;;;;;;3.28;68.30;99988.98;1774924;78;21393;-38
2022/02/26 04:58:02;;;;;;;11.63;8.33;;;;;;;3.27;68.17;99987.39;1772443;79;21064;-38
2022/02/26 05:00:30;;;;;;;11.55;7.58;;;;;;;3.26;67.98;99999.20;1779570;78;21024;-36
2022/02/26 05:02:57;;;;;;;14.28;8.45;;;;;;;3.26;67.88;99998.66;1775682;78;22000;-36
2022/02/26 05:05:25;;;;;;;14.25;7.85;;;;;;;3.21;67.75;100003.30;1780034;80;20933;-36
2022/02/26 05:07:52;;;;;;;14.10;8.38;;;;;;;3.15;67.73;100003.16;1778783;79;21266;-36
2022/02/26 05:10:19;;;;;;;11.88;7.03;;;;;;;3.12;67.77;100010.44;1776311;80;21539;-36
2022/02/26 05:12:48;;;;;;;11.80;6.58;;;;;;;3.13;67.69;100010.69;1774532;79;21008;-36
2022/02/26 05:15:17;;;;;;;13.48;7.78;;;;;;;3.13;67.53;100022.74;1770915;79;21219;-37
2022/02/26 05:17:44;;;;;;;11.63;7.70;;;;;;;3.15;67.53;100020.58;1777898;79;21585;-36
2022/02/26 05:20:11;;;;;;;12.45;7.62;;;;;;;3.16;67.60;100024.83;1775939;79;21039;-37
2022/02/26 05:22:39;;;;;;;9.98;6.95;;;;;;;3.14;67.52;100025.68;1773145;79;21903;-36
2022/02/26 05:25:07;;;;;;;12.00;7.12;;;;;;;3.14;67.51;100028.36;1771067;78;21033;-36
2022/02/26 05:27:34;;;;;;;14.30;8.10;;;;;;;3.13;67.45;100030.78;1756471;79;21835;-36
2022/02/26 05:30:01;;;;;;;12.63;7.50;;;;;;;3.12;67.40;100026.50;1787923;79;21570;-38
2022/02/26 05:32:28;;;;;;;12.82;8.03;;;;;;;3.13;67.42;100037.48;1776247;79;21062;-39
2022/02/26 05:34:56;;;;;;;13.78;7.78;;;;;;;3.13;67.38;100034.80;1771402;78;21437;-39
2022/02/26 05:37:23;;;;;;;9.53;6.62;;;;;;;3.13;67.18;100034.26;1763876;79;21024;-39
2022/02/26 05:39:49;;;;;;;12.23;7.00;;;;;;;3.13;67.13;100030.78;1771474;80;21142;-39
2022/02/26 05:42:16;;;;;;;10.75;6.83;;;;;;;3.14;67.13;100035.06;1768667;78;21801;-40
2022/02/26 05:44:43;;;;;;;12.25;7.75;;;;;;;3.13;67.23;100042.84;1773258;79;21079;-40
2022/02/26 05:47:11;;;;;;;10.68;7.55;;;;;;;3.11;67.30;100039.64;1781217;80;21084;-40
2022/02/26 05:49:38;;;;;;;13.30;8.15;;;;;;;3.10;67.33;100046.11;1775386;79;21037;-40
2022/02/26 05:52:06;;;;;;;14.43;7.35;;;;;;;3.10;67.32;100051.47;1773653;80;21158;-40
2022/02/26 05:54:35;;;;;;;15.20;8.48;;;;;;;3.08;67.39;100053.63;1776843;79;20997;-40
2022/02/26 05:57:04;;;;;;;13.10;8.25;;;;;;;3.02;67.42;100062.29;1768429;80;21032;-40
2022/02/26 05:59:32;;;;;;;11.40;7.35;;;;;;;2.99;67.57;100065.02;1738583;79;20989;-40
2022/02/26 06:01:58;;;;;;;12.07;7.72;;;;;;;3.01;67.71;100065.51;1740907;80;20957;-40
2022/02/26 06:04:25;;;;;;;15.63;7.97;;;;;;;3.04;67.89;100071.64;1753580;80;21127;-40
2022/02/26 06:06:51;;;;;;;16.37;8.75;;;;;;;3.03;68.02;100075.41;1762236;79;20966;-40
2022/02/26 06:09:18;;;;;;;12.70;7.97;;;;;;;3.04;68.22;100086.38;1748771;81;20985;-40
2022/02/26 06:11:44;;;;;;;12.82;8.03;;;;;;;3.05;68.38;100089.28;1753574;79;21508;-40
2022/02/26 06:14:11;;;;;;;13.60;8.33;;;;;;;3.10;68.53;100092.99;1747418;79;21002;-40
2022/02/26 06:16:40;;;;;;;12.82;7.97;;;;;;;3.14;68.63;100095.33;1747891;81;21137;-40
2022/02/26 06:19:07;;;;;;;15.13;7.97;;;;;;;3.22;68.56;100102.70;1752307;80;20983;-40
2022/02/26 06:21:33;;;;;;;14.58;8.58;;;;;;;3.29;68.46;100099.11;1738026;80;21077;-40
2022/02/26 06:24:00;;;;;;;12.50;7.85;;;;;;;3.38;68.48;100106.73;1754837;79;21037;-40
2022/02/26 06:26:27;;;;;;;13.65;8.85;;;;;;;3.38;68.28;100102.71;1688366;83;21132;-40
2022/02/26 06:28:57;;;;;;;10.58;7.95;;;;;;;3.33;68.56;100115.66;1720431;81;21933;-40
2022/02/26 06:31:24;;;;;;;15.45;9.08;;;;;;;3.35;68.66;100115.34;1722811;81;21604;-40
2022/02/26 06:33:53;;;;;;;15.08;9.70;;;;;;;3.33;68.64;100116.19;1740017;81;21481;-40
2022/02/26 06:36:20;;;;;;;14.07;8.73;;;;;;;3.32;68.76;100117.28;1741238;81;21041;-38
2022/02/26 06:38:46;;;;;;;12.18;7.78;;;;;;;3.34;68.83;100125.83;1747695;81;21084;-37
2022/02/26 06:41:13;;;;;;;14.47;8.05;;;;;;;3.37;68.62;100119.88;1759202;79;21119;-37
2022/02/26 06:43:40;;;;;;;13.18;7.05;;;;;;;3.40;68.48;100132.67;1749694;79;21571;-40
2022/02/26 06:46:11;;;;;;;11.68;7.37;;;;;;;3.39;68.40;100132.42;1742357;81;21546;-37
2022/02/26 06:48:41;;;;;;;11.65;7.78;;;;;;;3.40;68.46;100130.80;1750587;80;21547;-38
2022/02/26 06:51:08;;;;;;;12.28;8.63;;;;;;;3.43;68.26;100140.95;1739670;81;21065;-37
2022/02/26 06:53:35;;;;;;;14.90;7.90;;;;;;;3.45;68.24;100137.95;1746115;81;21140;-37
2022/02/26 06:56:04;;;;;;;11.63;7.03;;;;;;;3.47;68.20;100148.66;1743805;79;21001;-37
2022/02/26 06:58:30;;;;;;;11.55;6.67;;;;;;;3.52;67.97;100152.34;1745320;80;21088;-39
2022/02/26 07:00:57;;;;;;;11.50;7.70;;;;;;;3.61;67.74;100147.89;1703360;82;21475;-40
2022/02/26 07:03:24;;;;;;;14.30;7.15;;;;;;;3.67;67.50;100154.77;1713625;81;20964;-39
2022/02/26 07:05:51;;;;;;;12.20;7.20;;;;;;;3.68;67.33;100157.14;1717935;81;21194;-37
2022/02/26 07:08:18;;;;;;;16.00;7.30;;;;;;;3.73;67.34;100153.03;1759656;79;21036;-38
2022/02/26 07:13:14;;;;;;;12.80;6.67;;;;;;;3.80;66.96;100158.02;1822718;78;22622;-37
2022/02/26 07:15:41;;;;;;;10.63;6.67;;;;;;;3.71;66.79;100164.61;1797272;79;20941;-37
2022/02/26 07:18:10;;;;;;;9.33;6.03;;;;;;;3.75;66.55;100159.45;1789092;79;21084;-36
2022/02/26 07:20:37;;;;;;;11.95;6.70;;;;;;;3.83;66.06;100168.15;1795909;78;20949;-36
2022/02/26 07:23:04;;;;;;;10.90;6.47;;;;;;;3.90;65.95;100172.59;1792019;79;21750;-37
2022/02/26 07:25:31;;;;;;;10.95;6.15;;;;;;;4.02;65.83;100176.16;1757798;80;20926;-36
2022/02/26 07:27:58;;;;;;;13.25;6.72;;;;;;;4.09;65.07;100180.03;1738760;81;21027;-36
2022/02/26 07:30:24;;;;;;;10.75;6.42;;;;;;;4.13;64.43;100181.56;1737299;81;22011;-36
2022/02/26 07:32:51;;;;;;;10.95;5.90;;;;;;;4.18;64.27;100181.48;1740849;81;21533;-38
2022/02/26 07:35:18;;;;;;;11.48;5.78;;;;;;;4.24;64.11;100189.69;1741908;81;21021;-39
2022/02/26 07:37:45;;;;;;;11.33;5.50;;;;;;;4.35;63.82;100189.76;1727360;81;21045;-39
2022/02/26 07:40:13;;;;;;;9.68;6.35;;;;;;;4.45;63.02;100198.96;1744769;81;21538;-39
2022/02/26 07:42:40;;;;;;;9.65;5.47;;;;;;;4.53;62.58;100196.91;1742636;81;21137;-39
2022/02/26 07:45:08;;;;;;;10.85;5.03;;;;;;;4.60;62.22;100195.95;1742256;81;21761;-39
2022/02/26 07:47:35;;;;;;;9.13;5.17;;;;;;;4.70;61.87;100193.06;1734167;81;21010;-37
2022/02/26 07:50:02;;;;;;;12.70;5.90;;;;;;;4.80;61.47;100194.20;1729328;81;21503;-39
2022/02/26 07:52:31;;;;;;;8.95;4.95;;;;;;;4.94;60.85;100198.20;1735399;81;21534;-39
2022/02/26 07:55:02;;;;;;;9.53;4.72;;;;;;;5.06;60.58;100196.35;1730057;80;21168;-39
2022/02/26 07:57:30;;;;;;;8.90;4.42;;;;;;;5.23;60.10;100197.84;1725255;82;21012;-39
2022/02/26 07:59:57;;;;;;;8.73;4.50;;;;;;;5.43;59.20;100197.38;1732702;81;20996;-37
2022/02/26 08:02:24;;;;;;;8.20;3.70;;;;;;;5.62;58.35;100198.54;1745840;81;21551;-37
2022/02/26 08:04:51;;;;;;;8.48;4.33;;;;;;;5.80;56.90;100200.27;1736260;81;21053;-37
2022/02/26 08:07:18;;;;;;;8.08;4.08;;;;;;;5.96;56.51;100206.07;1734066;80;21126;-37
2022/02/26 08:09:45;;;;;;;7.22;3.27;;;;;;;6.13;56.38;100212.12;1761050;80;21096;-37
2022/02/26 08:12:12;;;;;;;9.35;4.12;;;;;;;6.34;56.28;100207.80;1754857;80;20945;-37
2022/02/26 08:14:39;;;;;;;8.33;3.37;;;;;;;6.61;54.78;100217.55;1745479;82;21579;-37
2022/02/26 08:17:07;;;;;;;7.25;3.85;;;;;;;6.83;54.20;100214.20;1783321;79;21042;-37
2022/02/26 08:19:34;;;;;;;7.05;3.47;;;;;;;7.06;53.42;100216.25;1816305;79;21108;-37
2022/02/26 08:22:02;;;;;;;6.83;2.72;;;;;;;7.27;53.09;100210.47;1816219;79;20925;-37
2022/02/26 08:24:30;;;;;;;7.00;3.05;;;;;;;7.53;51.35;100211.04;1791672;78;20949;-37
2022/02/26 08:26:57;;;;;;;8.08;3.30;;;;;;;7.74;49.74;100203.34;1802012;79;21025;-37
2022/02/26 08:29:23;;;;;;;7.20;2.65;;;;;;;7.87;49.64;100193.46;1794448;78;20982;-37
2022/02/26 08:31:50;;;;;;;7.42;2.58;;;;;;;8.19;49.21;100200.20;1800013;79;21961;-38
2022/02/26 08:34:16;;;;;;;6.20;2.50;;;;;;;8.45;48.62;100204.99;1801272;79;20893;-38
2022/02/26 08:36:44;;;;;;;6.45;2.70;;;;;;;8.71;47.72;100204.88;1802610;79;20929;-38
2022/02/26 08:39:10;;;;;;;4.80;2.27;;;;;;;8.89;46.40;100209.06;1805928;79;21606;-38
2022/02/26 08:41:37;;;;;;;5.08;2.22;;;;;;;9.02;45.71;100208.58;1794126;78;21032;-37
2022/02/26 08:44:05;;;;;;;6.47;2.40;;;;;;;9.13;44.33;100207.88;1805026;78;21150;-37
2022/02/26 08:46:32;;;;;;;4.33;2.00;;;;;;;9.16;43.57;100205.86;1792226;77;21019;-37
2022/02/26 08:48:58;;;;;;;4.40;1.95;;;;;;;9.19;42.50;100208.48;1800152;78;21107;-38
2022/02/26 08:51:26;;;;;;;6.25;2.70;;;;;;;9.25;42.32;100216.61;1796724;78;21502;-38
2022/02/26 08:53:53;;;;;;;4.55;2.12;;;;;;;9.35;42.24;100213.52;1800641;78;21039;-37
2022/02/26 08:56:25;;;;;;;5.87;1.90;;;;;;;9.46;41.47;100216.62;1803394;78;21716;-38
2022/02/26 08:58:51;;;;;;;5.33;2.03;;;;;;;9.56;41.07;100220.28;1793929;78;21019;-38
2022/02/26 09:01:18;;;;;;;6.72;2.92;;;;;;;9.73;40.04;100220.12;1800275;78;21079;-38
2022/02/26 09:03:45;;;;;;;4.75;1.70;;;;;;;9.80;39.23;100208.20;1795234;78;20922;-38
2022/02/26 09:06:13;;;;;;;4.58;1.77;;;;;;;9.82;39.09;100214.09;1803464;78;21028;-38
2022/02/26 09:08:40;;;;;;;5.15;2.00;;;;;;;9.82;38.99;100210.58;1792980;78;21173;-38
2022/02/26 09:11:07;;;;;;;6.30;2.30;;;;;;;9.78;38.55;100223.98;1797126;78;21515;-38
2022/02/26 09:13:36;;;;;;;7.08;2.20;;;;;;;9.72;38.17;100215.85;1785307;79;20954;-38
2022/02/26 09:16:03;;;;;;;8.95;2.75;;;;;;;9.61;38.15;100222.78;1782275;79;21633;-38
2022/02/26 09:18:29;;;;;;;4.80;1.98;;;;;;;9.56;37.63;100221.63;1783643;79;20977;-38
2022/02/26 09:20:56;;;;;;;3.98;1.75;;;;;;;9.57;38.03;100229.99;1772667;81;21132;-38
2022/02/26 09:23:23;;;;;;;3.35;1.65;;;;;;;9.66;37.65;100228.56;1794856;79;20957;-38
2022/02/26 09:25:49;;;;;;;5.50;1.90;;;;;;;9.73;37.87;100232.30;1801753;79;21004;-38
2022/02/26 09:28:16;;;;;;;5.67;2.10;;;;;;;9.84;37.22;100215.09;1786097;79;20981;-38
2022/02/26 09:30:42;;;;;;;4.65;1.70;;;;;;;9.97;36.70;100222.15;1787937;79;21076;-38
2022/02/26 09:33:10;;;;;;;4.90;1.90;;;;;;;10.00;35.92;100227.68;1799864;79;21086;-38
2022/02/26 09:35:36;;;;;;;5.03;1.82;;;;;;;9.96;36.29;100223.27;1788578;79;21044;-38
2022/02/26 09:38:03;;;;;;;4.37;1.90;;;;;;;10.00;35.94;100225.53;1777772;79;20941;-38
2022/02/26 09:40:30;;;;;;;6.17;1.75;;;;;;;10.09;35.48;100231.66;1783087;79;21021;-38
2022/02/26 09:42:57;;;;;;;5.65;2.05;;;;;;;10.12;35.40;100241.81;1778933;79;21076;-38
2022/02/26 09:45:24;;;;;;;6.00;1.80;;;;;;;10.11;35.55;100238.09;1786968;79;21334;-38
2022/02/26 09:47:51;;;;;;;2.60;1.67;;;;;;;10.23;36.13;100228.66;1779161;79;20992;-38
2022/02/26 09:50:19;;;;;;;4.95;2.00;;;;;;;10.40;36.02;100237.97;1792665;79;21000;-38
2022/02/26 09:52:46;;;;;;;3.47;1.60;;;;;;;10.68;34.49;100234.83;1784559;79;21021;-38
2022/02/26 09:55:13;;;;;;;5.70;1.80;;;;;;;10.86;34.75;100242.97;1743554;79;21040;-38
2022/02/26 09:57:41;;;;;;;4.17;1.82;;;;;;;10.97;34.04;100239.80;1793476;79;21108;-38
2022/02/26 10:00:12;;;;;;;4.47;1.95;;;;;;;11.05;34.33;100245.66;1778583;79;20984;-38
2022/02/26 10:02:39;;;;;;;3.15;1.82;;;;;;;11.19;34.31;100248.25;1788959;79;21081;-38
2022/02/26 10:05:10;;;;;;;4.72;1.77;;;;;;;11.39;33.34;100241.09;1788286;79;21021;-38
2022/02/26 10:07:39;;;;;;;3.47;1.82;;;;;;;11.53;34.15;100245.57;1794535;78;21055;-39
2022/02/26 10:10:20;;;;;;;3.87;2.05;;;;;;;11.75;34.11;100252.45;1790082;79;21248;-38
2022/02/26 10:12:53;;;;;;;3.72;1.80;;;;;;;11.78;34.16;100263.18;1780250;79;21022;-38
2022/02/26 10:15:30;;;;;;;5.05;1.72;;;;;;;11.56;33.31;100262.55;1738555;80;21781;-38
2022/02/26 10:18:02;;;;;;;3.52;1.40;;;;;;;11.34;33.24;100269.83;1790856;79;21064;-38
2022/02/26 10:20:29;;;;;;;4.37;1.82;;;;;;;11.18;33.10;100271.67;1776888;80;21038;-38
2022/02/26 10:22:56;;;;;;;3.20;1.45;;;;;;;11.19;32.77;100270.52;1773529;79;22325;-38
2022/02/26 10:25:25;;;;;;;3.75;1.60;;;;;;;11.37;33.26;100271.08;1740923;82;21005;-38
2022/02/26 10:27:58;;;;;;;4.47;2.17;;;;;;;11.67;32.92;100269.62;1778497;80;20977;-39
2022/02/26 10:30:38;;;;;;;3.77;1.77;;;;;;;11.92;32.53;100275.23;1772176;79;21080;-39
2022/02/26 10:33:12;;;;;;;;;;;;;;;12.20;31.88;100259.70;1774128;80;21009;-39
2022/02/26 10:35:58;;;;;;;2.02;1.07;;;;;;;12.50;30.03;100266.09;1771228;79;20882;-42
2022/02/26 10:38:24;;;;;;;5.42;1.60;;;;;;;12.43;28.63;100270.02;1773896;79;21889;-41
2022/02/26 10:40:57;;;;;;;3.33;1.75;;;;;;;12.18;29.19;100289.74;1767858;79;20961;-41
2022/02/26 10:43:50;;;;;;;6.97;1.85;;;;;;;11.88;29.51;100289.86;1763092;79;21002;-41
2022/02/26 10:46:24;;;;;;;3.85;1.60;;;;;;;11.78;30.10;100291.70;1767042;79;21019;-42
2022/02/26 10:48:55;;;;;;;2.98;1.50;;;;;;;11.88;29.80;100278.43;1730699;81;21118;-42
2022/02/26 10:51:27;;;;;;;4.62;1.82;;;;;;;12.09;30.31;100284.47;1730403;81;21084;-42
2022/02/26 10:53:54;;;;;;;3.47;1.65;;;;;;;12.37;30.49;100268.12;1707659;82;21318;-42
2022/02/26 10:56:31;;;;;;;2.83;1.60;;;;;;;12.71;30.05;100273.45;1762807;80;21033;-41
2022/02/26 10:58:59;;;;;;;3.65;1.35;;;;;;;13.00;29.29;100266.75;1770116;78;21073;-42
2022/02/26 11:01:26;;;;;;;4.67;1.40;;;;;;;13.18;28.94;100273.42;1739690;81;21083;-42
2022/02/26 11:03:56;;;;;;;3.50;1.77;;;;;;;13.30;28.43;100276.05;1762090;79;20951;-42
2022/02/26 11:06:23;;;;;;;3.77;1.57;;;;;;;13.33;28.50;100275.90;1771671;79;21033;-42
2022/02/26 11:08:51;;;;;;;5.40;1.90;;;;;;;13.30;29.07;100282.86;1765928;79;21080;-42
2022/02/26 11:11:19;;;;;;;4.08;1.80;;;;;;;13.25;29.12;100281.77;1765655;79;20974;-42
2022/02/26 11:13:49;;;;;;;4.67;2.08;;;;;;;13.21;29.06;100284.98;1771762;79;21234;-42
2022/02/26 11:16:16;;;;;;;5.22;2.62;;;;;;;13.20;29.53;100286.12;1762309;79;20930;-42
2022/02/26 11:18:45;;;;;;;7.15;3.02;;;;;;;13.29;29.78;100288.08;1779327;79;21016;-42
2022/02/26 11:21:15;;;;;;;3.22;1.57;;;;;;;13.33;29.30;100290.31;1788748;79;21025;-41
2022/02/26 11:23:43;;;;;;;4.20;1.85;;;;;;;13.07;28.62;100295.49;1787212;79;21314;-42
2022/02/26 11:26:10;;;;;;;3.80;2.10;;;;;;;12.64;28.91;100294.45;1719643;81;21091;-41
2022/02/26 11:28:40;;;;;;;4.58;1.80;;;;;;;12.32;29.63;100312.44;1786443;79;21567;-40
2022/02/26 11:31:44;;;;;;;3.77;1.92;;;;;;;12.22;30.09;100308.30;1753796;78;21028;-40
2022/02/26 11:34:11;;;;;;;4.22;2.20;;;;;;;12.40;30.39;100308.77;1766431;79;20945;-42
2022/02/26 11:39:59;;;;;;;2.77;1.72;;;;;;;13.03;29.82;100301.42;1769820;79;21821;-39
2022/02/26 11:42:27;;;;;;;2.72;1.75;;;;;;;13.40;28.68;100308.19;1769466;80;21068;-39